Time;durP1;ratioP1;P1;durP2;ratioP2;P2;SDS_P1;SDS_P2;PMS_P1;PMS_P2;Temp;Humidity;BMP_temperature;BMP_pressure;BME280_temperature;BME280_humidity;BME280_pressure;Samples;Min_cycle;Max_cycle;Signal;HPM_P1;HPM_P2
2021/12/19 00:02:46;;;;;;;;;;;;;;;14.01;53.91;103815.81;5018422;28;19913;-87
2021/12/19 00:10:28;;;;;;;;;;;;;;;13.90;54.58;103807.78;5042640;28;19992;-87
2021/12/19 00:12:54;;;;;;;;;;;;;;;13.76;55.11;103807.97;5018863;28;19921;-88
2021/12/19 00:15:19;;;;;;;;;;;;;;;14.06;55.11;103797.59;5026925;28;19924;-87
2021/12/19 00:17:46;;;;;;;;;;;;;;;13.30;57.08;103790.41;5028035;28;19917;-88
2021/12/19 00:20:12;;;;;;;;;;;;;;;14.15;54.13;103786.53;5030608;28;19901;-88
2021/12/19 00:22:37;;;;;;;;;;;;;;;14.38;53.27;103788.00;5030061;28;19917;-88
2021/12/19 00:25:04;;;;;;;;;;;;;;;14.78;52.29;103786.44;5029639;28;19964;-87
2021/12/19 00:27:29;;;;;;;;;;;;;;;14.34;53.53;103784.44;5029938;28;19917;-88
2021/12/19 00:29:54;;;;;;;;;;;;;;;13.52;54.77;103783.81;5030843;28;19940;-89
2021/12/19 00:32:19;;;;;;;;;;;;;;;14.20;54.11;103766.53;5031063;28;19960;-89
2021/12/19 00:34:45;;;;;;;;;;;;;;;14.35;52.82;103777.16;5030299;28;19924;-88
2021/12/19 00:37:11;;;;;;;;;;;;;;;13.16;57.14;103780.59;5029334;28;19928;-87
2021/12/19 00:39:36;;;;;;;;;;;;;;;13.96;54.67;103774.13;5029502;28;19917;-88
2021/12/19 00:42:07;;;;;;;;;;;;;;;14.45;53.08;103781.53;5029676;28;19924;-88
2021/12/19 00:44:32;;;;;;;;;;;;;;;14.23;54.03;103769.19;5028906;28;19913;-87
2021/12/19 00:47:05;;;;;;;;;;;;;;;14.54;52.92;103767.75;5030061;28;19924;-87
2021/12/19 00:49:31;;;;;;;;;;;;;;;13.84;55.11;103769.78;5030351;28;19913;-88
2021/12/19 00:51:56;;;;;;;;;;;;;;;14.43;53.74;103769.78;5030626;28;19917;-86
2021/12/19 00:54:21;;;;;;;;;;;;;;;14.63;52.98;103755.84;5030095;28;20394;-88
2021/12/19 00:56:48;;;;;;;;;;;;;;;14.58;53.22;103756.78;5030493;28;19928;-88
2021/12/19 00:59:14;;;;;;;;;;;;;;;14.30;53.96;103757.28;5028434;28;20395;-87
2021/12/19 01:01:39;;;;;;;;;;;;;;;14.39;53.87;103758.94;5029873;28;19928;-89
2021/12/19 01:04:06;;;;;;;;;;;;;;;13.99;55.46;103760.47;5047318;28;19917;-87
2021/12/19 01:06:31;;;;;;;;;;;;;;;14.05;54.60;103748.59;5030133;28;19924;-86
2021/12/19 01:08:56;;;;;;;;;;;;;;;14.72;53.51;103749.31;5029889;28;19920;-86
2021/12/19 01:11:22;;;;;;;;;;;;;;;14.77;53.16;103743.78;5028576;28;19984;-86
2021/12/19 01:13:47;;;;;;;;;;;;;;;14.50;53.87;103741.47;5028542;28;19912;-86
2021/12/19 01:16:13;;;;;;;;;;;;;;;14.27;54.58;103746.44;5029344;28;19917;-87
2021/12/19 01:18:38;;;;;;;;;;;;;;;14.53;53.80;103745.97;5028187;28;19917;-87
2021/12/19 01:21:05;;;;;;;;;;;;;;;14.56;53.72;103739.59;5028847;28;19921;-87
2021/12/19 01:23:31;;;;;;;;;;;;;;;14.31;54.75;103737.28;5029300;28;19917;-88
2021/12/19 01:25:56;;;;;;;;;;;;;;;13.67;57.25;103742.81;5029180;28;19928;-88
2021/12/19 01:28:21;;;;;;;;;;;;;;;12.75;62.88;103745.69;5028579;28;19987;-89
2021/12/19 01:30:47;;;;;;;;;;;;;;;13.04;62.30;103744.47;5028603;28;19917;-88
2021/12/19 01:33:12;;;;;;;;;;;;;;;12.46;64.99;103743.28;5047082;28;19913;-87
2021/12/19 01:35:37;;;;;;;;;;;;;;;12.79;64.67;103732.06;5028681;28;19917;-87
2021/12/19 01:38:02;;;;;;;;;;;;;;;12.66;64.28;103728.59;5029199;28;19917;-88
2021/12/19 01:40:28;;;;;;;;;;;;;;;13.48;62.36;103720.41;5029360;28;19960;-88
2021/12/19 01:42:54;;;;;;;;;;;;;;;13.82;60.27;103719.91;5029479;28;19917;-89
2021/12/19 01:45:27;;;;;;;;;;;;;;;13.68;58.12;103728.28;5028297;28;20004;-89
2021/12/19 01:47:52;;;;;;;;;;;;;;;14.62;55.81;103723.16;5028609;28;19917;-89
2021/12/19 01:50:18;;;;;;;;;;;;;;;14.67;55.05;103724.88;5029289;28;19996;-87
2021/12/19 01:52:47;;;;;;;;;;;;;;;14.40;55.81;103715.31;5029316;28;19917;-87
2021/12/19 01:55:13;;;;;;;;;;;;;;;13.74;59.49;103717.31;5028818;28;19917;-88
2021/12/19 01:57:38;;;;;;;;;;;;;;;14.03;58.10;103723.25;5028481;28;19917;-87
2021/12/19 02:00:05;;;;;;;;;;;;;;;13.85;58.53;103713.53;5028815;28;19924;-88
2021/12/19 02:02:30;;;;;;;;;;;;;;;12.79;62.94;103723.91;5029491;28;19918;-88
2021/12/19 02:04:56;;;;;;;;;;;;;;;12.90;63.35;103722.91;5028629;28;19917;-89
2021/12/19 02:07:21;;;;;;;;;;;;;;;12.63;65.25;103723.19;5029697;28;19912;-87
2021/12/19 02:09:46;;;;;;;;;;;;;;;13.18;63.29;103718.94;5028762;28;19984;-87
2021/12/19 02:12:12;;;;;;;;;;;;;;;13.16;63.02;103720.78;5027316;28;19921;-87
2021/12/19 02:14:37;;;;;;;;;;;;;;;13.46;61.99;103711.38;5028861;28;19951;-87
2021/12/19 02:17:03;;;;;;;;;;;;;;;13.68;61.06;103714.69;5028933;28;19917;-87
2021/12/19 02:19:29;;;;;;;;;;;;;;;13.70;60.68;103710.13;5027790;28;20375;-88
2021/12/19 02:21:54;;;;;;;;;;;;;;;13.76;60.66;103699.13;5028239;28;19918;-89
2021/12/19 02:24:20;;;;;;;;;;;;;;;14.63;57.82;103705.88;5028112;28;19924;-88
2021/12/19 02:26:45;;;;;;;;;;;;;;;14.81;56.43;103705.53;5028443;28;19924;-88
2021/12/19 02:29:11;;;;;;;;;;;;;;;14.35;57.34;103699.06;5027931;28;19948;-88
2021/12/19 02:31:36;;;;;;;;;;;;;;;13.92;59.37;103699.81;5028017;28;19905;-88
2021/12/19 02:34:15;;;;;;;;;;;;;;;14.43;58.71;103696.22;5028818;28;19930;-88
2021/12/19 02:36:56;;;;;;;;;;;;;;;14.05;59.11;103692.31;5045634;28;20016;-89
2021/12/19 02:50:07;;;;;;;;;;;;;;;14.11;59.72;103684.06;5045064;28;20398;-87
2021/12/19 02:52:33;;;;;;;;;;;;;;;14.14;58.91;103688.56;5027527;28;19921;-87
2021/12/19 02:54:58;;;;;;;;;;;;;;;14.90;56.96;103674.47;5027236;28;19917;-89
2021/12/19 02:57:23;;;;;;;;;;;;;;;14.21;59.37;103673.03;5026804;28;20019;-88
2021/12/19 02:59:49;;;;;;;;;;;;;;;14.34;59.09;103664.63;5027057;28;19972;-88
2021/12/19 03:02:16;;;;;;;;;;;;;;;13.93;60.68;103662.59;5027852;28;19960;-87
2021/12/19 03:04:58;;;;;;;;;;;;;;;13.00;64.04;103658.47;5027383;28;19925;-88
2021/12/19 03:07:24;;;;;;;;;;;;;;;12.61;67.64;103662.59;5027349;28;19917;-88
2021/12/19 03:13:19;;;;;;;;;;;;;;;12.28;69.41;103645.72;5044067;28;19944;-87
2021/12/19 03:17:58;;;;;;;;;;;;;;;12.69;68.21;103638.94;5044251;28;19928;-88
2021/12/19 03:20:24;;;;;;;;;;;;;;;12.54;67.44;103637.28;5026582;28;20012;-87
2021/12/19 03:22:49;;;;;;;;;;;;;;;12.99;66.72;103637.66;5025840;28;19923;-88
2021/12/19 03:25:15;;;;;;;;;;;;;;;13.52;64.42;103626.06;5026482;28;20275;-89
2021/12/19 03:27:42;;;;;;;;;;;;;;;13.99;63.17;103611.69;5025468;28;23298;-89
2021/12/19 03:30:07;;;;;;;;;;;;;;;13.39;64.87;103611.75;5026601;28;19925;-88
2021/12/19 03:32:33;;;;;;;;;;;;;;;14.78;59.72;103612.03;5026488;28;19917;-88
2021/12/19 03:34:58;;;;;;;;;;;;;;;15.06;57.82;103599.59;5026189;28;19917;-88
2021/12/19 03:37:23;;;;;;;;;;;;;;;13.96;61.00;103608.13;5026650;28;19917;-89
2021/12/19 03:40:23;;;;;;;;;;;;;;;13.65;63.07;103603.22;5025366;28;19923;-88
2021/12/19 03:42:45;;;;;;;;;;;;;;;13.04;66.48;103605.88;5040020;28;19917;-86
2021/12/19 03:45:11;;;;;;;;;;;;;;;13.26;65.77;103605.59;5026716;28;19905;-89
2021/12/19 03:47:37;;;;;;;;;;;;;;;13.55;65.39;103602.44;5026020;28;19917;-88
2021/12/19 03:50:07;;;;;;;;;;;;;;;13.59;63.59;103597.88;5026222;28;19924;-88
2021/12/19 03:52:32;;;;;;;;;;;;;;;13.18;65.66;103599.34;5022229;28;19918;-88
2021/12/19 03:54:58;;;;;;;;;;;;;;;13.52;64.80;103596.16;5026181;28;20011;-88
2021/12/19 03:57:23;;;;;;;;;;;;;;;12.14;70.71;103597.91;5027396;28;19917;-89
2021/12/19 03:59:49;;;;;;;;;;;;;;;12.46;70.10;103596.66;5027013;28;19988;-88
2021/12/19 04:02:23;;;;;;;;;;;;;;;13.28;67.67;103590.13;5026846;28;19969;-87
2021/12/19 04:04:48;;;;;;;;;;;;;;;13.33;66.30;103593.69;5026638;28;19921;-88
2021/12/19 04:07:13;;;;;;;;;;;;;;;13.41;66.28;103582.75;5025499;28;19920;-88
2021/12/19 04:09:38;;;;;;;;;;;;;;;13.22;65.97;103582.97;5042320;28;20063;-88
2021/12/19 04:12:04;;;;;;;;;;;;;;;12.67;68.00;103575.59;5025035;28;19921;-89
2021/12/19 04:14:29;;;;;;;;;;;;;;;13.16;67.08;103576.72;5026020;28;19925;-88
2021/12/19 04:16:54;;;;;;;;;;;;;;;13.06;66.85;103567.81;5025809;28;19918;-88
2021/12/19 04:19:20;;;;;;;;;;;;;;;13.35;65.72;103569.25;5025322;28;19947;-88
2021/12/19 04:21:46;;;;;;;;;;;;;;;13.17;66.15;103559.50;5025301;28;19918;-89
2021/12/19 04:24:11;;;;;;;;;;;;;;;13.04;66.39;103567.81;5042380;28;19917;-88
2021/12/19 04:26:36;;;;;;;;;;;;;;;13.84;64.23;103557.50;5025260;28;19948;-89
2021/12/19 04:29:02;;;;;;;;;;;;;;;14.56;60.02;103559.78;5027122;28;20381;-87
2021/12/19 04:31:27;;;;;;;;;;;;;;;14.30;60.87;103561.22;5043520;28;19925;-89
2021/12/19 04:33:52;;;;;;;;;;;;;;;14.16;60.98;103565.09;5026145;28;20410;-89
2021/12/19 04:36:25;;;;;;;;;;;;;;;14.76;58.96;103560.28;5026112;28;20363;-89
2021/12/19 04:39:18;;;;;;;;;;;;;;;14.84;59.37;103550.13;5026060;28;19932;-89
2021/12/19 04:42:14;;;;;;;;;;;;;;;14.18;61.54;103548.72;5044052;28;19917;-89
2021/12/19 04:51:04;;;;;;;;;;;;;;;13.92;62.91;103539.25;5044151;28;20020;-88
2021/12/19 05:00:08;;;;;;;;;;;;;;;14.36;61.37;103531.13;5044316;28;19921;-88
2021/12/19 05:02:48;;;;;;;;;;;;;;;12.58;68.82;103539.47;5026115;28;19939;-88
2021/12/19 05:05:32;;;;;;;;;;;;;;;13.57;66.60;103531.69;5029111;28;19901;-88
2021/12/19 05:16:03;;;;;;;;;;;;;;;13.41;66.43;103544.66;5047877;28;19982;-89
2021/12/19 05:18:31;;;;;;;;;;;;;;;13.74;64.28;103547.72;5029997;28;19917;-89
2021/12/19 05:21:05;;;;;;;;;;;;;;;13.71;63.94;103550.50;5029938;28;19923;-88
2021/12/19 05:25:55;;;;;;;;;;;;;;;13.10;65.64;103548.72;5046750;28;19917;-89
2021/12/19 05:28:21;;;;;;;;;;;;;;;13.17;65.30;103545.91;5029826;28;19964;-88
2021/12/19 05:30:46;;;;;;;;;;;;;;;13.11;66.34;103542.34;5030431;28;19921;-89
2021/12/19 05:33:11;;;;;;;;;;;;;;;13.23;66.24;103552.16;5029443;28;19964;-88
2021/12/19 05:46:33;;;;;;;;;;;;;;;14.25;62.26;103530.44;5047752;28;19939;-90
2021/12/19 05:48:58;;;;;;;;;;;;;;;14.67;60.17;103541.41;5047240;28;19917;-91
2021/12/19 05:51:24;;;;;;;;;;;;;;;14.75;59.22;103527.59;5029233;28;19918;-89
2021/12/19 05:53:49;;;;;;;;;;;;;;;14.47;60.64;103534.50;5029657;28;19925;-89
2021/12/19 05:56:14;;;;;;;;;;;;;;;14.07;61.80;103534.41;5028985;28;19952;-89
2021/12/19 05:58:39;;;;;;;;;;;;;;;13.48;64.63;103527.31;5046933;28;19925;-89
2021/12/19 06:01:05;;;;;;;;;;;;;;;13.29;65.55;103529.41;5028792;28;19913;-89
2021/12/19 06:03:30;;;;;;;;;;;;;;;13.31;65.02;103524.84;5029547;28;19924;-89
2021/12/19 06:05:57;;;;;;;;;;;;;;;14.03;62.71;103519.97;5029246;28;19923;-88
2021/12/19 06:08:22;;;;;;;;;;;;;;;14.12;62.08;103508.91;5046220;28;19924;-88
2021/12/19 06:10:48;;;;;;;;;;;;;;;13.72;62.80;103512.38;5029239;28;19913;-88
2021/12/19 06:13:13;;;;;;;;;;;;;;;14.28;61.67;103511.31;5029448;28;20439;-88
2021/12/19 06:15:38;;;;;;;;;;;;;;;14.09;61.37;103505.38;5026878;28;19943;-88
2021/12/19 06:18:05;;;;;;;;;;;;;;;13.61;63.94;103504.41;5046586;28;19952;-91
2021/12/19 06:20:31;;;;;;;;;;;;;;;13.53;64.36;103505.50;5029516;28;19917;-92
2021/12/19 06:22:57;;;;;;;;;;;;;;;13.60;64.31;103501.72;5028319;28;19964;-91
2021/12/19 06:25:22;;;;;;;;;;;;;;;13.12;67.35;103503.38;5044091;28;19917;-91
2021/12/19 06:27:47;;;;;;;;;;;;;;;13.47;65.60;103501.06;5024744;28;19909;-91
2021/12/19 06:30:13;;;;;;;;;;;;;;;13.62;64.69;103502.59;5024397;28;20299;-91
2021/12/19 06:32:38;;;;;;;;;;;;;;;13.75;64.13;103504.19;5023643;28;19921;-91
2021/12/19 06:35:07;;;;;;;;;;;;;;;12.79;67.74;103495.72;5024462;28;19921;-91
2021/12/19 06:37:35;;;;;;;;;;;;;;;13.40;67.34;103489.38;5022798;28;20004;-91
2021/12/19 06:40:02;;;;;;;;;;;;;;;13.85;65.45;103502.19;5023795;28;19953;-92
2021/12/19 06:42:28;;;;;;;;;;;;;;;13.55;63.42;103493.66;5024449;28;19960;-92
2021/12/19 06:44:53;;;;;;;;;;;;;;;13.51;64.92;103491.00;5025134;28;19920;-92
2021/12/19 06:47:18;;;;;;;;;;;;;;;13.93;63.45;103482.97;5024937;28;19917;-91
2021/12/19 06:49:43;;;;;;;;;;;;;;;14.03;62.74;103481.88;5023777;28;19924;-92
2021/12/19 06:52:09;;;;;;;;;;;;;;;13.66;63.27;103485.28;5023623;28;19924;-91
2021/12/19 06:54:34;;;;;;;;;;;;;;;13.42;62.75;103484.81;5023034;28;19924;-92
2021/12/19 06:56:59;;;;;;;;;;;;;;;13.51;63.41;103486.44;5023329;28;19921;-91
2021/12/19 06:59:24;;;;;;;;;;;;;;;14.50;59.66;103479.97;5023637;28;19992;-91
2021/12/19 07:01:49;;;;;;;;;;;;;;;13.61;63.25;103481.75;5025980;28;19924;-93
2021/12/19 07:04:15;;;;;;;;;;;;;;;13.85;60.91;103487.69;5027032;28;19908;-92
2021/12/19 07:06:55;;;;;;;;;;;;;;;13.92;62.75;103476.66;5026268;28;19976;-92
2021/12/19 07:09:28;;;;;;;;;;;;;;;14.50;59.39;103477.25;5024581;28;20366;-91
2021/12/19 07:11:53;;;;;;;;;;;;;;;14.13;60.23;103475.31;5024180;28;19921;-91
2021/12/19 07:14:18;;;;;;;;;;;;;;;13.74;62.36;103471.53;5024509;28;19968;-93
2021/12/19 07:16:43;;;;;;;;;;;;;;;14.21;61.00;103467.00;5024062;28;20008;-91
2021/12/19 07:19:09;;;;;;;;;;;;;;;14.09;61.24;103469.97;5023608;28;19971;-92
2021/12/19 07:21:34;;;;;;;;;;;;;;;14.95;57.69;103470.81;5023610;28;19921;-93
2021/12/19 07:23:59;;;;;;;;;;;;;;;14.80;57.54;103472.06;5023932;28;19924;-90
2021/12/19 07:26:27;;;;;;;;;;;;;;;14.56;57.91;103472.63;5023009;28;19924;-92
2021/12/19 07:28:53;;;;;;;;;;;;;;;15.29;56.13;103466.34;5023822;28;19971;-92
2021/12/19 07:31:19;;;;;;;;;;;;;;;15.47;54.50;103465.88;5023253;28;19925;-91
2021/12/19 07:33:46;;;;;;;;;;;;;;;15.09;55.63;103467.75;5024459;28;19921;-92
2021/12/19 07:36:12;;;;;;;;;;;;;;;14.94;57.85;103465.41;5023095;28;19921;-91
2021/12/19 07:38:51;;;;;;;;;;;;;;;15.57;54.74;103458.34;5023254;28;19955;-92
2021/12/19 07:41:17;;;;;;;;;;;;;;;15.84;53.38;103464.91;5023826;28;19924;-91
2021/12/19 07:43:42;;;;;;;;;;;;;;;15.29;55.61;103463.63;5030230;28;19902;-92
2021/12/19 07:46:07;;;;;;;;;;;;;;;14.94;56.25;103459.94;5027164;28;19925;-91
2021/12/19 07:48:32;;;;;;;;;;;;;;;14.53;58.49;103470.84;5021397;28;19917;-93
2021/12/19 07:50:58;;;;;;;;;;;;;;;14.24;59.17;103466.03;5022274;28;19920;-92
2021/12/19 07:53:24;;;;;;;;;;;;;;;14.18;60.08;103467.94;5021941;28;19923;-92
2021/12/19 07:55:50;;;;;;;;;;;;;;;14.06;60.09;103462.75;5022854;28;19917;-91
2021/12/19 07:58:16;;;;;;;;;;;;;;;14.44;60.07;103460.16;5022538;28;20270;-93
2021/12/19 08:00:43;;;;;;;;;;;;;;;13.80;61.62;103460.56;5022093;28;20041;-92
2021/12/19 08:03:08;;;;;;;;;;;;;;;14.89;58.25;103457.34;5022619;28;19917;-91
2021/12/19 08:05:42;;;;;;;;;;;;;;;15.37;56.08;103450.69;5022917;28;20369;-92
2021/12/19 08:08:10;;;;;;;;;;;;;;;14.87;57.63;103453.72;5023011;28;19936;-93
2021/12/19 08:13:02;;;;;;;;;;;;;;;14.98;56.90;103448.94;5039936;28;19988;-92
2021/12/19 08:15:28;;;;;;;;;;;;;;;15.43;55.89;103450.53;5022774;28;19947;-92
2021/12/19 08:17:53;;;;;;;;;;;;;;;15.13;55.72;103447.66;5022600;28;19917;-93
2021/12/19 08:20:18;;;;;;;;;;;;;;;14.46;58.32;103451.03;5022077;28;19944;-92
2021/12/19 08:22:44;;;;;;;;;;;;;;;14.52;58.50;103449.97;5022609;28;19971;-92
2021/12/19 08:25:10;;;;;;;;;;;;;;;14.84;57.54;103440.19;5021662;28;20260;-92
2021/12/19 08:27:37;;;;;;;;;;;;;;;14.96;58.45;103439.91;5022367;28;19924;-92
2021/12/19 08:30:08;;;;;;;;;;;;;;;14.94;57.57;103436.31;5023348;28;19905;-92
2021/12/19 08:32:34;;;;;;;;;;;;;;;15.50;55.86;103438.50;5023670;28;19924;-93
2021/12/19 08:34:59;;;;;;;;;;;;;;;14.29;60.27;103436.88;5023262;28;19917;-91
2021/12/19 08:37:24;;;;;;;;;;;;;;;14.93;57.71;103439.06;5020834;28;19917;-91
2021/12/19 08:39:51;;;;;;;;;;;;;;;15.15;58.20;103444.91;5026305;28;19901;-90
2021/12/19 08:42:17;;;;;;;;;;;;;;;14.09;60.88;103443.63;5029525;28;19917;-94
2021/12/19 08:44:42;;;;;;;;;;;;;;;15.11;57.11;103446.78;5029215;28;20456;-91
2021/12/19 08:47:08;;;;;;;;;;;;;;;15.27;56.61;103436.38;5027559;28;19921;-92
2021/12/19 08:49:34;;;;;;;;;;;;;;;15.83;54.92;103433.09;5028839;28;19917;-91
2021/12/19 08:52:00;;;;;;;;;;;;;;;15.61;55.24;103430.06;5027310;28;20544;-92
2021/12/19 08:54:25;;;;;;;;;;;;;;;16.18;53.55;103422.97;5028358;28;20000;-92
2021/12/19 08:56:52;;;;;;;;;;;;;;;15.70;54.81;103431.59;5030677;28;19917;-93
2021/12/19 08:59:17;;;;;;;;;;;;;;;15.83;54.13;103433.09;5030086;28;20272;-93
2021/12/19 09:01:42;;;;;;;;;;;;;;;15.44;55.24;103430.47;5029198;28;19956;-92
2021/12/19 09:04:08;;;;;;;;;;;;;;;15.43;55.93;103426.00;5029125;28;19901;-90
2021/12/19 09:06:34;;;;;;;;;;;;;;;15.40;55.83;103417.88;5027568;28;19917;-92
2021/12/19 09:08:59;;;;;;;;;;;;;;;14.62;58.84;103428.91;5026765;28;19917;-90
2021/12/19 09:11:24;;;;;;;;;;;;;;;14.52;58.78;103433.63;5027917;28;19917;-94
2021/12/19 09:13:50;;;;;;;;;;;;;;;15.09;57.17;103425.97;5022178;28;19925;-93
2021/12/19 09:16:15;;;;;;;;;;;;;;;14.95;58.03;103434.50;5019769;28;19927;-92
2021/12/19 09:18:40;;;;;;;;;;;;;;;14.98;56.49;103432.56;5018558;28;20038;-92
2021/12/19 09:21:06;;;;;;;;;;;;;;;15.40;55.25;103431.53;5028791;28;19901;-93
2021/12/19 09:23:32;;;;;;;;;;;;;;;15.30;55.45;103428.13;5033623;28;19917;-94
2021/12/19 09:25:58;;;;;;;;;;;;;;;14.40;60.27;103431.19;5024161;28;19923;-93
2021/12/19 09:28:24;;;;;;;;;;;;;;;14.13;60.65;103418.16;5032035;28;19925;-92
2021/12/19 09:30:49;;;;;;;;;;;;;;;14.32;60.93;103425.91;5027528;28;19929;-91
2021/12/19 09:33:14;;;;;;;;;;;;;;;15.24;56.67;103412.81;5022455;28;19912;-91
2021/12/19 09:35:40;;;;;;;;;;;;;;;14.46;59.44;103417.44;5027223;28;19913;-93
2021/12/19 09:38:05;;;;;;;;;;;;;;;15.17;56.98;103422.13;5024283;28;20008;-91
2021/12/19 09:40:36;;;;;;;;;;;;;;;14.62;58.81;103429.81;5025116;28;19971;-89
2021/12/19 09:43:21;;;;;;;;;;;;;;;15.85;54.86;103416.66;5025393;28;19957;-92
2021/12/19 09:45:50;;;;;;;;;;;;;;;15.86;54.32;103413.00;5025300;28;19940;-91
2021/12/19 09:48:16;;;;;;;;;;;;;;;15.57;54.66;103412.84;5025670;28;19917;-93
2021/12/19 09:50:42;;;;;;;;;;;;;;;16.19;52.77;103411.09;5025007;28;19991;-94
2021/12/19 09:53:07;;;;;;;;;;;;;;;15.99;53.85;103419.00;5025780;28;20279;-92
2021/12/19 09:55:32;;;;;;;;;;;;;;;16.23;54.12;103421.00;5027513;28;19916;-94
2021/12/19 09:57:59;;;;;;;;;;;;;;;15.80;53.78;103416.81;5026269;28;20579;-91
2021/12/19 10:00:24;;;;;;;;;;;;;;;16.21;53.71;103422.88;5025925;28;19916;-93
2021/12/19 10:02:50;;;;;;;;;;;;;;;16.68;51.99;103415.97;5027057;28;19992;-92
2021/12/19 10:05:15;;;;;;;;;;;;;;;17.07;50.89;103424.72;5026022;28;19917;-95
2021/12/19 10:07:48;;;;;;;;;;;;;;;17.24;50.29;103417.78;5026952;28;20618;-92
2021/12/19 10:10:23;;;;;;;;;;;;;;;16.76;51.77;103419.38;5024337;28;19917;-92
2021/12/19 10:12:51;;;;;;;;;;;;;;;15.76;53.47;103406.88;5026497;28;19928;-95
2021/12/19 10:15:37;;;;;;;;;;;;;;;15.11;56.40;103411.34;5026605;28;19971;-93
2021/12/19 10:18:07;;;;;;;;;;;;;;;15.29;56.16;103406.34;5025717;28;19919;-95
2021/12/19 10:20:43;;;;;;;;;;;;;;;15.56;54.60;103408.31;5026791;28;19917;-92
2021/12/19 10:23:10;;;;;;;;;;;;;;;15.26;56.38;103400.97;5026714;28;19913;-93
2021/12/19 10:25:36;;;;;;;;;;;;;;;15.87;53.71;103395.69;5023540;28;19988;-92
2021/12/19 10:28:02;;;;;;;;;;;;;;;14.89;56.44;103395.53;5011373;28;19929;-89
2021/12/19 10:30:32;;;;;;;;;;;;;;;15.06;56.81;103391.50;5009855;28;20087;-91
2021/12/19 10:33:01;;;;;;;;;;;;;;;15.82;54.49;103393.09;5016619;28;19921;-90
2021/12/19 10:35:29;;;;;;;;;;;;;;;15.63;54.92;103386.34;5014407;28;19971;-91
2021/12/19 10:37:55;;;;;;;;;;;;;;;15.46;55.62;103387.72;5018127;28;19928;-91
2021/12/19 10:40:21;;;;;;;;;;;;;;;15.52;55.19;103390.28;5016097;28;19921;-91
2021/12/19 10:42:54;;;;;;;;;;;;;;;15.46;55.50;103379.53;5012924;28;19931;-91
2021/12/19 10:45:34;;;;;;;;;;;;;;;15.67;54.65;103383.50;5022716;28;19921;-91
2021/12/19 10:48:20;;;;;;;;;;;;;;;15.16;56.31;103371.22;5018813;28;19917;-92
2021/12/19 10:50:51;;;;;;;;;;;;;;;15.31;56.73;103372.66;5030231;28;19972;-91
2021/12/19 10:53:16;;;;;;;;;;;;;;;15.70;54.13;103368.84;5015389;28;20428;-88
2021/12/19 10:55:46;;;;;;;;;;;;;;;15.46;55.50;103368.63;5007725;28;19917;-89
2021/12/19 10:58:31;;;;;;;;;;;;;;;15.65;55.05;103347.13;5014408;28;19975;-92
2021/12/19 11:01:04;;;;;;;;;;;;;;;16.15;52.95;103356.63;5012108;28;20020;-88
2021/12/19 11:03:56;;;;;;;;;;;;;;;16.19;52.99;103341.94;5014449;28;19917;-91
2021/12/19 11:06:24;;;;;;;;;;;;;;;17.06;50.58;103345.47;5021871;28;19923;-90
2021/12/19 11:08:51;;;;;;;;;;;;;;;17.50;49.51;103334.78;5017905;28;19925;-92
2021/12/19 11:11:35;;;;;;;;;;;;;;;16.99;50.65;103344.78;5019531;28;20295;-90
2021/12/19 11:14:02;;;;;;;;;;;;;;;16.88;51.05;103341.53;5018613;28;19921;-91
2021/12/19 11:16:36;;;;;;;;;;;;;;;16.65;51.03;103332.22;5024670;28;19929;-94
2021/12/19 11:19:02;;;;;;;;;;;;;;;16.39;51.98;103324.91;5023779;28;19917;-92
2021/12/19 11:21:33;;;;;;;;;;;;;;;15.95;52.69;103323.53;5016915;28;19931;-92
2021/12/19 11:23:58;;;;;;;;;;;;;;;16.07;52.75;103319.53;5021011;28;20358;-92
2021/12/19 11:26:27;;;;;;;;;;;;;;;16.07;52.95;103314.06;5016432;28;19924;-92
2021/12/19 11:28:53;;;;;;;;;;;;;;;15.94;52.62;103316.28;5011597;28;19959;-91
2021/12/19 11:31:19;;;;;;;;;;;;;;;15.70;53.31;103314.25;5016918;28;19964;-92
2021/12/19 11:34:05;;;;;;;;;;;;;;;16.05;51.61;103312.34;5022527;28;19921;-89
2021/12/19 11:36:36;;;;;;;;;;;;;;;16.14;50.77;103306.59;5010330;28;20375;-93
2021/12/19 11:39:02;;;;;;;;;;;;;;;16.88;48.83;103295.03;5021926;28;19986;-88
2021/12/19 11:41:28;;;;;;;;;;;;;;;16.41;49.55;103303.88;5021723;28;20012;-91
2021/12/19 11:43:57;;;;;;;;;;;;;;;16.14;50.02;103295.66;5022312;28;19956;-89
2021/12/19 11:46:41;;;;;;;;;;;;;;;15.44;52.35;103285.91;5021851;28;19935;-91
2021/12/19 11:49:11;;;;;;;;;;;;;;;15.63;52.19;103288.13;5020882;28;19917;-88
2021/12/19 11:51:36;;;;;;;;;;;;;;;15.56;52.50;103288.25;5039082;28;20024;-87
2021/12/19 11:54:16;;;;;;;;;;;;;;;16.11;50.93;103282.09;5020959;28;19909;-87
2021/12/19 11:57:01;;;;;;;;;;;;;;;16.17;51.43;103279.19;5039369;28;19917;-92
2021/12/19 11:59:26;;;;;;;;;;;;;;;16.53;50.31;103287.09;5021791;28;19925;-93
2021/12/19 12:01:52;;;;;;;;;;;;;;;16.38;50.62;103273.94;5020958;28;20016;-90
2021/12/19 12:04:18;;;;;;;;;;;;;;;15.72;52.84;103274.19;5022506;28;20427;-88
2021/12/19 12:06:56;;;;;;;;;;;;;;;16.11;51.00;103279.38;5039369;28;19921;-89
2021/12/19 12:09:25;;;;;;;;;;;;;;;16.11;50.98;103273.91;5022044;28;19959;-88
2021/12/19 12:11:59;;;;;;;;;;;;;;;16.71;49.65;103268.28;5021140;28;20012;-87
2021/12/19 12:14:30;;;;;;;;;;;;;;;16.55;49.90;103265.19;5020499;28;19917;-92
2021/12/19 12:16:57;;;;;;;;;;;;;;;15.56;51.14;103266.44;5020827;28;19968;-90
2021/12/19 12:19:43;;;;;;;;;;;;;;;15.80;50.98;103269.41;5021976;28;19917;-93
2021/12/19 12:22:45;;;;;;;;;;;;;;;15.96;51.50;103267.09;5022226;28;20020;-91
2021/12/19 12:25:32;;;;;;;;;;;;;;;16.10;50.86;103266.66;5039614;28;19925;-92
2021/12/19 12:28:06;;;;;;;;;;;;;;;15.10;54.19;103266.88;5015368;28;19992;-93
2021/12/19 12:30:33;;;;;;;;;;;;;;;15.91;52.63;103260.88;5022254;28;19921;-90
2021/12/19 12:33:01;;;;;;;;;;;;;;;15.52;53.37;103269.31;5021316;28;19917;-89
2021/12/19 12:35:28;;;;;;;;;;;;;;;16.01;52.58;103259.66;5021555;28;19921;-89
2021/12/19 12:37:55;;;;;;;;;;;;;;;15.64;53.01;103252.59;5020019;28;19964;-87
2021/12/19 12:40:27;;;;;;;;;;;;;;;15.46;52.82;103254.03;5020545;28;19924;-87
2021/12/19 12:43:08;;;;;;;;;;;;;;;14.48;55.14;103257.59;5020778;28;19909;-92
2021/12/19 12:46:07;;;;;;;;;;;;;;;14.96;53.68;103250.91;5020790;28;19923;-88
2021/12/19 12:48:43;;;;;;;;;;;;;;;15.49;51.65;103253.94;4991294;28;19918;-90
2021/12/19 12:51:08;;;;;;;;;;;;;;;15.54;51.62;103251.06;5022001;28;19917;-90
2021/12/19 12:53:45;;;;;;;;;;;;;;;15.73;51.39;103251.38;5021022;28;20016;-88
2021/12/19 12:56:19;;;;;;;;;;;;;;;15.68;51.98;103248.81;5036077;28;19921;-89
2021/12/19 12:58:46;;;;;;;;;;;;;;;15.71;51.30;103250.56;5007636;28;20455;-87
2021/12/19 13:01:17;;;;;;;;;;;;;;;15.76;51.40;103246.75;5014410;28;19921;-88
2021/12/19 13:04:03;;;;;;;;;;;;;;;15.49;52.09;103236.66;5007242;28;19948;-89
2021/12/19 13:06:43;;;;;;;;;;;;;;;15.40;51.54;103229.69;5023016;28;19918;-90
2021/12/19 13:09:29;;;;;;;;;;;;;;;14.71;53.85;103232.50;5021851;28;19953;-90
2021/12/19 13:12:02;;;;;;;;;;;;;;;15.11;52.94;103225.94;5020837;28;19974;-87
2021/12/19 13:14:29;;;;;;;;;;;;;;;14.95;53.25;103219.16;5021390;28;19925;-90
2021/12/19 13:16:56;;;;;;;;;;;;;;;14.95;53.18;103208.25;5023372;28;19968;-91
2021/12/19 13:22:11;;;;;;;;;;;;;;;14.82;54.28;103207.69;5040978;28;19917;-91
2021/12/19 13:24:36;;;;;;;;;;;;;;;14.88;53.77;103202.94;5023279;28;19917;-92
2021/12/19 13:27:06;;;;;;;;;;;;;;;15.10;54.08;103201.44;5026798;28;20240;-89
2021/12/19 13:29:31;;;;;;;;;;;;;;;15.15;53.76;103199.50;5026104;28;19921;-92
2021/12/19 13:32:15;;;;;;;;;;;;;;;15.46;51.86;103191.28;5027315;28;19956;-91
2021/12/19 13:34:50;;;;;;;;;;;;;;;14.85;54.00;103183.97;5050148;28;19993;-91
2021/12/19 13:37:15;;;;;;;;;;;;;;;15.90;51.65;103199.06;5019652;28;19987;-92
2021/12/19 13:39:42;;;;;;;;;;;;;;;15.62;51.77;103193.53;5023487;28;20266;-89
2021/12/19 13:42:08;;;;;;;;;;;;;;;15.22;52.23;103202.00;5016402;28;19925;-90
2021/12/19 13:44:34;;;;;;;;;;;;;;;15.89;51.57;103197.25;5018380;28;19917;-87